Time;durP1;ratioP1;P1;durP2;ratioP2;P2;SDS_P1;SDS_P2;PMS_P1;PMS_P2;Temp;Humidity;BMP_temperature;BMP_pressure;BME280_temperature;BME280_humidity;BME280_pressure;Samples;Min_cycle;Max_cycle;Signal;HPM_P1;HPM_P2
2021/01/27 00:00:43;;;;;;;11.20;5.88;;;;;;;2.27;89.58;101206.75;5024876;28;20045;-70
2021/01/27 00:03:09;;;;;;;15.55;6.32;;;;;;;2.18;90.12;101186.63;5023181;28;20558;-70
2021/01/27 00:05:40;;;;;;;14.18;5.43;;;;;;;2.36;88.71;101188.84;5024172;28;20112;-70
2021/01/27 00:08:07;;;;;;;9.55;5.30;;;;;;;2.28;88.30;101182.00;5025158;28;20052;-70
2021/01/27 00:10:33;;;;;;;9.80;5.50;;;;;;;2.29;88.55;101176.66;5027027;28;20095;-70
2021/01/27 00:12:59;;;;;;;10.10;5.28;;;;;;;2.21;89.63;101168.03;5025544;28;20044;-70
2021/01/27 00:15:33;;;;;;;13.02;5.15;;;;;;;2.29;88.41;101173.13;5007253;28;20530;-70
2021/01/27 00:17:59;;;;;;;8.88;4.63;;;;;;;2.40;85.74;101169.34;5006964;28;20488;-70
2021/01/27 00:20:27;;;;;;;9.57;5.25;;;;;;;2.29;86.65;101170.47;5010791;28;20041;-70
2021/01/27 00:22:53;;;;;;;12.45;5.05;;;;;;;2.51;85.42;101171.72;5024985;28;20033;-70
2021/01/27 00:25:23;;;;;;;9.63;4.47;;;;;;;2.47;85.87;101169.19;5008661;28;20037;-71
2021/01/27 00:27:48;;;;;;;11.15;4.85;;;;;;;2.37;86.38;101164.09;5026452;28;20083;-70
2021/01/27 00:30:17;;;;;;;12.27;4.70;;;;;;;2.35;86.56;101155.31;5023112;28;20619;-70
2021/01/27 00:32:42;;;;;;;8.20;4.10;;;;;;;2.43;85.32;101158.66;5022465;28;20104;-70
2021/01/27 00:35:08;;;;;;;8.40;4.60;;;;;;;2.43;84.55;101148.06;5025842;28;20025;-70
2021/01/27 00:37:34;;;;;;;11.52;4.45;;;;;;;2.34;85.26;101143.00;5019380;28;20032;-70
2021/01/27 00:40:00;;;;;;;7.18;3.92;;;;;;;2.37;85.41;101137.59;5011227;28;20045;-70
2021/01/27 00:42:27;;;;;;;11.10;4.40;;;;;;;2.57;83.52;101137.13;5009997;28;20531;-70
2021/01/27 00:44:53;;;;;;;11.57;4.47;;;;;;;2.42;83.92;101125.13;5025465;28;20072;-70
2021/01/27 00:47:18;;;;;;;7.20;4.05;;;;;;;2.41;83.51;101120.72;5026062;28;20068;-70
2021/01/27 00:49:44;;;;;;;7.75;3.83;;;;;;;2.35;83.57;101127.94;5027103;28;20029;-70
2021/01/27 00:52:13;;;;;;;10.70;4.25;;;;;;;2.36;84.38;101135.88;5008426;28;20080;-69
2021/01/27 00:54:38;;;;;;;7.03;3.38;;;;;;;2.55;80.65;101146.00;5002927;28;20108;-70
2021/01/27 00:57:04;;;;;;;10.05;3.80;;;;;;;2.51;82.42;101145.22;5026081;28;20025;-70
2021/01/27 00:59:30;;;;;;;8.98;3.70;;;;;;;2.42;82.94;101137.50;5025858;28;20037;-70
2021/01/27 01:01:56;;;;;;;8.90;4.50;;;;;;;2.43;82.49;101142.75;5023370;28;20069;-70
2021/01/27 01:04:35;;;;;;;9.45;3.83;;;;;;;2.64;82.14;101140.50;5019156;28;20453;-69
2021/01/27 01:07:01;;;;;;;13.13;4.55;;;;;;;2.55;81.49;101143.38;5025819;28;20165;-70
2021/01/27 01:09:27;;;;;;;11.13;4.32;;;;;;;2.58;82.53;101140.66;5014970;28;20077;-71
2021/01/27 01:11:54;;;;;;;16.90;5.78;;;;;;;2.61;81.50;101145.88;5018219;28;20527;-70
2021/01/27 01:14:20;;;;;;;16.17;6.18;;;;;;;2.61;81.03;101149.38;5017220;28;20037;-70
2021/01/27 01:16:45;;;;;;;16.85;6.03;;;;;;;2.52;80.96;101130.22;4993561;28;20037;-70
2021/01/27 01:19:10;;;;;;;18.00;6.22;;;;;;;2.64;80.54;101135.19;5025695;28;20144;-70
2021/01/27 01:21:36;;;;;;;25.05;7.65;;;;;;;2.60;81.33;101139.69;5027604;28;20064;-69
2021/01/27 01:24:01;;;;;;;21.00;6.30;;;;;;;2.57;80.91;101144.22;5027738;28;20060;-70
2021/01/27 01:26:27;;;;;;;23.85;7.20;;;;;;;2.61;81.52;101145.88;5028153;28;20103;-70
2021/01/27 01:28:52;;;;;;;18.20;6.13;;;;;;;2.69;80.84;101144.78;5031212;28;20087;-71
2021/01/27 01:31:18;;;;;;;20.98;5.75;;;;;;;2.73;79.80;101150.84;5014247;28;20037;-70
2021/01/27 01:33:43;;;;;;;14.25;5.18;;;;;;;2.63;80.59;101159.97;5027114;28;23695;-70
2021/01/27 01:36:09;;;;;;;11.10;3.70;;;;;;;2.90;79.05;101167.19;5026669;28;20028;-70
2021/01/27 01:38:35;;;;;;;7.68;3.33;;;;;;;2.76;79.85;101164.03;5010523;28;20025;-69
2021/01/27 01:41:04;;;;;;;7.07;3.42;;;;;;;2.80;80.21;101147.16;5010440;28;20132;-70
2021/01/27 01:43:31;;;;;;;6.28;3.15;;;;;;;2.85;80.00;101155.84;5031012;28;20033;-70
2021/01/27 01:45:57;;;;;;;7.88;3.70;;;;;;;2.84;80.28;101148.78;5016107;28;20400;-70
2021/01/27 01:48:27;;;;;;;5.07;2.63;;;;;;;2.82;80.76;101150.63;5008140;28;20065;-70
2021/01/27 01:51:00;;;;;;;8.32;2.92;;;;;;;2.87;80.51;101159.34;5021926;28;20037;-70
2021/01/27 01:53:27;;;;;;;8.25;3.20;;;;;;;2.98;80.66;101146.66;5028630;28;20033;-70
2021/01/27 01:55:56;;;;;;;5.90;2.90;;;;;;;2.99;81.72;101140.47;5031251;28;20025;-71
2021/01/27 01:58:22;;;;;;;4.35;2.42;;;;;;;2.97;82.65;101129.00;5029493;28;20047;-70
2021/01/27 02:00:53;;;;;;;7.95;2.95;;;;;;;2.90;84.22;101127.41;5030875;28;20029;-70
2021/01/27 02:03:19;;;;;;;7.07;2.70;;;;;;;2.76;84.81;101119.84;5026254;28;20037;-71
2021/01/27 02:05:45;;;;;;;11.75;3.13;;;;;;;2.76;86.85;101118.97;5012314;28;20045;-70
2021/01/27 02:08:11;;;;;;;4.63;2.65;;;;;;;2.77;88.53;101110.13;5029751;28;20499;-71
2021/01/27 02:10:36;;;;;;;9.52;3.00;;;;;;;2.68;89.22;101105.94;5026435;28;20044;-70
2021/01/27 02:13:22;;;;;;;7.25;2.92;;;;;;;2.69;90.54;101085.59;5012093;28;20037;-71
2021/01/27 02:16:15;;;;;;;9.63;2.92;;;;;;;2.61;90.89;101084.91;5029753;28;20037;-71
2021/01/27 02:18:59;;;;;;;7.88;3.42;;;;;;;2.51;91.66;101075.47;5030808;28;20069;-70
2021/01/27 02:21:55;;;;;;;7.22;3.17;;;;;;;2.47;92.50;101073.81;5027655;28;20041;-70
2021/01/27 02:24:58;;;;;;;10.10;3.65;;;;;;;2.59;91.91;101076.16;5021901;28;20069;-69
2021/01/27 02:27:45;;;;;;;10.13;3.33;;;;;;;2.48;91.85;101075.53;5029241;28;20501;-70
2021/01/27 02:30:34;;;;;;;6.22;3.00;;;;;;;2.55;91.77;101077.13;4995443;28;20041;-70
2021/01/27 02:33:20;;;;;;;9.32;3.95;;;;;;;2.62;91.43;101073.41;5029460;28;20121;-71
2021/01/27 02:35:53;;;;;;;7.25;3.28;;;;;;;2.55;91.79;101066.53;5029553;28;20072;-70
2021/01/27 02:38:23;;;;;;;8.20;3.60;;;;;;;2.59;91.73;101070.84;5026952;28;20037;-71
2021/01/27 02:40:51;;;;;;;10.65;3.90;;;;;;;2.67;92.54;101050.31;5015067;28;20029;-70
2021/01/27 02:43:24;;;;;;;9.98;4.30;;;;;;;2.61;93.10;101053.13;5029879;28;20558;-70
2021/01/27 02:45:56;;;;;;;;;;;;;;;2.60;94.38;101046.06;5030197;28;20056;-70
2021/01/27 02:48:31;;;;;;;7.22;4.28;;;;;;;2.48;95.46;101051.69;5009849;28;19947;-69
2021/01/27 02:51:07;;;;;;;11.25;4.15;;;;;;;2.39;96.08;101045.75;5023495;28;20048;-69
2021/01/27 02:53:40;;;;;;;8.65;3.65;;;;;;;2.46;96.94;101027.03;5029221;28;20141;-70
2021/01/27 02:56:46;;;;;;;9.50;3.50;;;;;;;2.41;97.84;101012.09;5029781;28;20026;-70
2021/01/27 02:59:22;;;;;;;6.40;3.53;;;;;;;2.51;97.28;101003.94;5026601;28;20543;-70
2021/01/27 03:01:56;;;;;;;6.03;3.90;;;;;;;2.46;97.50;100998.75;5025862;28;20042;-70
2021/01/27 03:04:28;;;;;;;8.63;3.55;;;;;;;2.42;97.98;101002.38;4994236;28;21234;-70
2021/01/27 03:06:56;;;;;;;9.85;3.53;;;;;;;2.35;98.81;101006.97;5022102;28;20034;-70
2021/01/27 03:09:29;;;;;;;5.13;3.00;;;;;;;2.31;98.69;100988.56;5029141;28;20045;-70
2021/01/27 03:11:55;;;;;;;5.15;2.97;;;;;;;2.34;98.88;100978.78;5005913;28;20499;-70
2021/01/27 03:14:20;;;;;;;6.15;2.95;;;;;;;2.45;98.40;100975.81;5030540;28;20029;-69
2021/01/27 03:16:55;;;;;;;7.55;3.30;;;;;;;2.35;98.53;100972.53;5027712;28;20064;-70
2021/01/27 03:19:47;;;;;;;6.10;3.10;;;;;;;2.37;98.21;100968.06;5028940;28;20041;-70
2021/01/27 03:22:19;;;;;;;6.28;3.35;;;;;;;2.25;98.43;100963.09;5024379;28;20527;-70
2021/01/27 03:24:58;;;;;;;6.60;3.60;;;;;;;2.39;98.35;100955.66;5016995;28;20411;-70
2021/01/27 03:27:29;;;;;;;7.60;2.78;;;;;;;2.38;98.30;100951.28;5027932;28;20032;-70
2021/01/27 03:29:58;;;;;;;8.40;3.17;;;;;;;2.35;98.75;100943.41;5029136;28;20544;-70
2021/01/27 03:32:33;;;;;;;8.75;2.85;;;;;;;2.30;99.13;100934.72;5027407;28;20029;-71
2021/01/27 03:35:08;;;;;;;6.18;2.90;;;;;;;2.27;99.17;100932.16;5028620;28;20029;-70
2021/01/27 03:37:43;;;;;;;5.82;2.58;;;;;;;2.36;98.12;100917.78;5029983;28;20381;-70
2021/01/27 03:40:11;;;;;;;9.73;3.50;;;;;;;2.34;98.05;100909.91;5027812;28;20034;-70
2021/01/27 03:42:49;;;;;;;7.20;3.30;;;;;;;2.33;98.97;100900.22;5028892;28;20033;-69
2021/01/27 03:45:20;;;;;;;12.50;4.10;;;;;;;2.30;99.04;100902.06;5028062;28;20472;-70
2021/01/27 03:47:53;;;;;;;6.97;2.50;;;;;;;2.43;98.29;100904.34;5026023;28;20045;-70
2021/01/27 03:50:25;;;;;;;12.13;3.15;;;;;;;2.35;98.29;100900.16;5026415;28;20116;-70
2021/01/27 03:52:54;;;;;;;18.25;5.50;;;;;;;2.26;98.59;100901.28;5028728;28;20503;-70
2021/01/27 03:55:31;;;;;;;8.98;4.30;;;;;;;2.22;99.40;100899.63;5026851;28;20041;-70
2021/01/27 03:58:05;;;;;;;8.07;3.25;;;;;;;2.29;99.40;100890.59;5021041;28;20033;-70
2021/01/27 04:00:31;;;;;;;6.30;3.72;;;;;;;2.27;98.72;100887.16;5028467;28;20041;-69
2021/01/27 04:03:21;;;;;;;6.07;2.75;;;;;;;2.28;98.37;100883.59;5027974;28;20068;-69
2021/01/27 04:06:24;;;;;;;6.10;3.28;;;;;;;2.25;98.65;100896.91;5053096;23;20051;-74
2021/01/27 04:08:54;;;;;;;9.20;3.38;;;;;;;2.34;97.77;100901.97;5072319;28;20035;-73
2021/01/27 04:11:23;;;;;;;9.25;3.25;;;;;;;2.38;96.72;100906.25;5085073;28;20036;-74
2021/01/27 04:14:02;;;;;;;7.65;3.53;;;;;;;2.41;96.68;100899.97;5088434;28;20122;-73
2021/01/27 04:16:49;;;;;;;7.70;3.72;;;;;;;2.42;96.77;100896.41;5087934;28;20038;-74
2021/01/27 04:19:15;;;;;;;9.90;3.97;;;;;;;2.38;96.76;100890.34;5089721;23;20032;-77
2021/01/27 04:21:42;;;;;;;13.02;3.70;;;;;;;2.47;96.37;100886.56;5025286;28;20118;-76
2021/01/27 04:24:07;;;;;;;6.65;3.05;;;;;;;2.49;96.02;100874.16;5030841;28;20029;-75
2021/01/27 04:26:35;;;;;;;9.50;3.63;;;;;;;2.50;95.98;100872.38;5031242;28;20037;-75
2021/01/27 04:29:00;;;;;;;7.18;3.25;;;;;;;2.49;95.62;100875.94;5014801;28;20111;-75
2021/01/27 04:31:25;;;;;;;8.50;4.43;;;;;;;2.55;95.18;100859.84;5049315;28;20115;-77
2021/01/27 04:33:51;;;;;;;9.27;3.40;;;;;;;2.43;95.61;100858.44;5046509;28;20036;-75
2021/01/27 04:36:16;;;;;;;10.48;3.15;;;;;;;2.44;95.32;100858.38;5063294;28;20078;-75
2021/01/27 04:38:45;;;;;;;10.02;2.80;;;;;;;2.59;94.53;100857.09;5053918;28;20040;-75
2021/01/27 04:41:11;;;;;;;8.82;3.10;;;;;;;2.59;94.19;100845.63;5053912;28;20097;-75
2021/01/27 04:43:40;;;;;;;6.57;3.08;;;;;;;2.58;93.81;100822.69;5062739;28;20032;-75
2021/01/27 04:46:14;;;;;;;9.15;3.10;;;;;;;2.55;94.65;100820.97;5051116;28;20524;-75
2021/01/27 04:48:55;;;;;;;12.38;3.25;;;;;;;2.59;94.96;100821.78;5049239;28;20401;-74
2021/01/27 04:51:26;;;;;;;11.45;3.50;;;;;;;2.66;94.15;100815.34;5049775;28;20035;-75
2021/01/27 04:54:28;;;;;;;5.28;2.95;;;;;;;2.61;95.00;100811.97;5061167;28;20036;-76
2021/01/27 04:57:11;;;;;;;5.15;2.50;;;;;;;2.64;94.14;100806.59;5034334;28;20036;-75
2021/01/27 05:00:00;;;;;;;6.50;2.50;;;;;;;2.56;94.90;100804.16;5039800;28;20098;-75
2021/01/27 05:02:44;;;;;;;15.00;5.80;;;;;;;2.63;93.69;100789.81;5057177;28;20048;-76
2021/01/27 05:05:31;;;;;;;24.95;7.75;;;;;;;2.67;94.13;100795.88;5066711;28;20043;-75
2021/01/27 05:08:03;;;;;;;8.40;2.60;;;;;;;2.52;94.29;100785.78;5066060;28;20115;-75
2021/01/27 05:10:40;;;;;;;12.18;2.75;;;;;;;2.62;94.77;100792.50;5027084;28;20033;-75
2021/01/27 05:13:20;;;;;;;7.20;2.63;;;;;;;2.52;95.45;100789.28;5064368;28;20032;-75
2021/01/27 05:15:47;;;;;;;8.55;2.47;;;;;;;2.46;96.20;100791.25;5047681;28;20175;-75
2021/01/27 05:18:13;;;;;;;6.63;2.97;;;;;;;2.44;96.20;100783.34;5050170;28;20501;-75
2021/01/27 05:20:42;;;;;;;6.97;3.10;;;;;;;2.54;95.59;100783.91;5034731;28;20029;-75
2021/01/27 05:23:07;;;;;;;5.80;2.72;;;;;;;2.61;94.85;100785.47;5069323;28;20037;-77
2021/01/27 05:25:35;;;;;;;10.20;2.60;;;;;;;2.52;95.24;100769.88;5057221;28;20111;-75
2021/01/27 05:28:03;;;;;;;8.60;2.63;;;;;;;2.55;95.05;100748.56;5046976;28;20475;-76
2021/01/27 05:30:45;;;;;;;8.00;2.35;;;;;;;2.47;95.97;100751.44;5035056;28;20100;-75
2021/01/27 05:33:10;;;;;;;9.07;2.53;;;;;;;2.46;96.29;100746.22;5048638;28;20028;-75
2021/01/27 05:35:38;;;;;;;5.03;2.00;;;;;;;2.58;96.41;100751.13;5050985;28;20158;-76
2021/01/27 05:38:19;;;;;;;6.28;2.28;;;;;;;2.50;96.93;100743.41;5053238;28;20041;-75
2021/01/27 05:40:44;;;;;;;10.40;2.22;;;;;;;2.48;97.89;100744.38;5047817;28;20036;-76
2021/01/27 05:43:16;;;;;;;5.72;2.03;;;;;;;2.51;98.14;100741.63;5048701;28;20527;-75
2021/01/27 05:45:45;;;;;;;3.50;1.80;;;;;;;2.46;98.42;100738.28;5034650;28;20036;-75
2021/01/27 05:48:26;;;;;;;8.45;1.73;;;;;;;2.53;99.00;100739.81;5045353;28;20032;-75
2021/01/27 05:51:01;;;;;;;6.28;2.00;;;;;;;2.44;99.50;100740.97;5064292;28;20040;-75
2021/01/27 05:53:31;;;;;;;4.35;1.70;;;;;;;2.49;100.00;100730.22;5035902;28;20032;-75
2021/01/27 05:56:13;;;;;;;3.80;1.70;;;;;;;2.54;100.00;100725.63;5058713;28;20029;-75
2021/01/27 05:58:42;;;;;;;5.32;1.58;;;;;;;2.49;100.00;100720.50;5048378;28;20033;-75
2021/01/27 06:01:21;;;;;;;4.05;1.75;;;;;;;2.40;100.00;100716.38;5045262;28;20035;-76
2021/01/27 06:04:01;;;;;;;2.42;1.60;;;;;;;2.42;100.00;100714.50;5064347;28;20067;-77
2021/01/27 06:06:31;;;;;;;4.75;1.75;;;;;;;2.31;100.00;100723.72;5045755;28;20036;-76
2021/01/27 06:08:59;;;;;;;4.22;1.65;;;;;;;2.28;100.00;100711.44;5065237;28;20516;-77
2021/01/27 06:11:25;;;;;;;6.75;1.80;;;;;;;2.21;100.00;100712.53;5029403;28;20507;-77
2021/01/27 06:14:06;;;;;;;7.63;1.80;;;;;;;2.27;100.00;100720.31;5046803;28;20442;-77
2021/01/27 06:16:41;;;;;;;5.43;1.92;;;;;;;2.19;100.00;100702.88;5050859;28;20110;-77
2021/01/27 06:19:19;;;;;;;8.25;2.28;;;;;;;2.20;100.00;100692.25;5032185;28;20043;-76
2021/01/27 06:22:12;;;;;;;5.47;1.65;;;;;;;2.04;100.00;100698.91;5069267;28;20029;-76
2021/01/27 06:24:53;;;;;;;5.38;2.10;;;;;;;2.02;100.00;100701.63;5065301;28;20174;-76
2021/01/27 06:27:24;;;;;;;3.97;1.58;;;;;;;2.13;100.00;100693.34;5038929;28;20037;-78
2021/01/27 06:30:09;;;;;;;5.63;1.70;;;;;;;2.02;100.00;100701.63;5062143;28;20036;-76
2021/01/27 06:33:01;;;;;;;7.53;2.70;;;;;;;2.10;100.00;100693.44;5069050;28;20040;-76
2021/01/27 06:35:39;;;;;;;4.85;2.00;;;;;;;2.06;100.00;100678.56;5057172;28;20132;-77
2021/01/27 06:38:32;;;;;;;7.13;2.50;;;;;;;1.94;100.00;100665.69;5066049;28;20039;-76
2021/01/27 06:41:04;;;;;;;14.32;2.97;;;;;;;1.89;100.00;100665.84;5062718;28;20025;-77
2021/01/27 06:43:32;;;;;;;7.95;2.53;;;;;;;1.85;100.00;100666.00;5049367;28;20036;-77
2021/01/27 06:46:08;;;;;;;4.57;1.90;;;;;;;1.81;100.00;100653.75;5062667;28;20040;-77
2021/01/27 06:49:19;;;;;;;5.72;2.40;;;;;;;1.80;100.00;100657.28;5036576;28;20063;-78
2021/01/27 06:52:03;;;;;;;6.28;2.92;;;;;;;1.76;100.00;100659.19;5044845;28;20057;-76
2021/01/27 06:55:07;;;;;;;5.05;2.83;;;;;;;1.73;100.00;100656.59;5034782;28;20024;-76
2021/01/27 06:57:51;;;;;;;10.23;3.92;;;;;;;1.74;100.00;100657.47;5040985;28;20051;-76
2021/01/27 07:00:44;;;;;;;8.80;3.35;;;;;;;1.71;100.00;100657.56;5064433;28;20028;-76
2021/01/27 07:03:13;;;;;;;;;;;;;;;1.62;100.00;100659.56;5048381;28;20060;-76
2021/01/27 07:05:41;;;;;;;13.88;4.07;;;;;;;1.62;100.00;100659.56;5046682;28;19916;-76
2021/01/27 07:08:28;;;;;;;13.52;3.63;;;;;;;1.65;100.00;100653.34;5030024;28;20032;-76
2021/01/27 07:10:57;;;;;;;20.88;5.63;;;;;;;1.71;100.00;100657.56;5053977;28;20033;-76
2021/01/27 07:13:46;;;;;;;20.30;7.88;;;;;;;1.57;100.00;100658.84;5048428;28;20502;-76
2021/01/27 07:16:38;;;;;;;10.98;5.20;;;;;;;1.61;100.00;100657.81;4977711;28;20043;-76
2021/01/27 07:19:21;;;;;;;9.75;5.10;;;;;;;1.66;100.00;100655.06;5066798;28;20025;-76
2021/01/27 07:21:46;;;;;;;;;;;;;;;1.66;100.00;100659.50;5065804;28;20287;-77
2021/01/27 07:24:20;;;;;;;13.38;4.43;;;;;;;1.56;100.00;100665.03;5069442;28;20437;-78
2021/01/27 07:26:54;;;;;;;12.82;5.43;;;;;;;1.69;100.00;100662.03;5035261;28;20051;-76
2021/01/27 07:29:35;;;;;;;7.45;4.88;;;;;;;1.61;100.00;100668.41;5052738;28;20409;-76
2021/01/27 07:32:44;;;;;;;9.88;5.07;;;;;;;1.55;100.00;100667.72;5041379;28;20024;-76
2021/01/27 07:35:35;;;;;;;8.45;5.13;;;;;;;1.73;100.00;100661.06;4999975;28;20068;-76
2021/01/27 07:38:04;;;;;;;11.50;5.57;;;;;;;1.67;100.00;100645.38;5049622;28;20391;-77
2021/01/27 07:40:57;;;;;;;12.98;6.65;;;;;;;1.68;100.00;100632.06;5055804;28;20040;-76
2021/01/27 07:43:40;;;;;;;9.37;6.20;;;;;;;1.63;100.00;100640.13;5065601;28;20039;-77
2021/01/27 07:46:07;;;;;;;13.57;6.07;;;;;;;1.56;100.00;100654.44;5057589;28;20390;-76
2021/01/27 07:48:56;;;;;;;11.98;6.45;;;;;;;1.68;100.00;100649.72;5051114;28;20115;-77
2021/01/27 07:51:25;;;;;;;12.98;6.78;;;;;;;1.59;100.00;100657.03;5065955;28;20056;-76
2021/01/27 07:54:23;;;;;;;13.23;7.05;;;;;;;1.59;100.00;100659.69;5067138;28;20040;-76
2021/01/27 07:57:19;;;;;;;16.55;8.38;;;;;;;1.66;100.00;100670.06;5020862;28;20135;-76
2021/01/27 07:59:51;;;;;;;19.17;8.90;;;;;;;1.72;100.00;100681.34;5046621;28;20398;-77
2021/01/27 08:02:32;;;;;;;14.43;7.38;;;;;;;1.67;100.00;100677.09;5062390;28;20044;-76
2021/01/27 08:05:06;;;;;;;12.68;8.10;;;;;;;1.67;100.00;100683.25;5024308;28;20028;-76
2021/01/27 08:07:42;;;;;;;12.07;7.35;;;;;;;1.66;100.00;100686.81;5037926;28;20028;-76
2021/01/27 08:10:18;;;;;;;17.40;9.68;;;;;;;1.68;100.00;100678.81;5039654;28;20035;-77
2021/01/27 08:12:52;;;;;;;14.55;8.38;;;;;;;1.86;100.00;100676.50;5066322;28;20036;-76
2021/01/27 08:15:23;;;;;;;15.52;9.75;;;;;;;1.91;100.00;100665.81;5048505;28;20036;-77
2021/01/27 08:17:55;;;;;;;21.10;9.68;;;;;;;1.81;100.00;100659.03;5034321;28;20036;-77
2021/01/27 08:20:25;;;;;;;13.00;8.63;;;;;;;1.80;100.00;100652.88;5051968;28;20493;-76
2021/01/27 08:22:52;;;;;;;13.55;6.95;;;;;;;1.81;100.00;100637.84;5047073;28;20032;-76
2021/01/27 08:25:50;;;;;;;12.90;8.32;;;;;;;1.76;100.00;100645.06;5048614;28;20433;-77
2021/01/27 08:28:23;;;;;;;16.33;7.95;;;;;;;1.85;100.00;100650.94;5045441;28;20062;-77
2021/01/27 08:31:07;;;;;;;12.25;7.47;;;;;;;1.83;100.00;100641.34;5054193;28;20100;-76
2021/01/27 08:33:47;;;;;;;15.85;7.95;;;;;;;1.95;100.00;100640.97;5061466;28;20445;-76
2021/01/27 08:36:15;;;;;;;13.10;7.10;;;;;;;1.94;100.00;100647.16;5049348;28;20032;-76
2021/01/27 08:39:07;;;;;;;14.80;7.97;;;;;;;1.84;100.00;100637.78;5061377;28;20457;-75
2021/01/27 08:41:57;;;;;;;11.30;6.80;;;;;;;1.99;100.00;100650.53;5034364;28;20040;-76
2021/01/27 08:44:22;;;;;;;14.82;7.72;;;;;;;1.97;100.00;100660.34;5047551;28;20033;-76
2021/01/27 08:46:52;;;;;;;15.50;7.43;;;;;;;1.96;100.00;100667.41;5046856;28;20082;-76
2021/01/27 08:49:36;;;;;;;11.15;6.82;;;;;;;2.01;100.00;100656.66;5044612;28;20036;-76
2021/01/27 08:52:21;;;;;;;14.88;7.90;;;;;;;2.04;100.00;100643.31;5057697;28;20107;-76
2021/01/27 08:54:52;;;;;;;18.58;7.80;;;;;;;2.06;100.00;100638.84;5034467;28;20098;-76
2021/01/27 08:57:20;;;;;;;15.63;8.70;;;;;;;2.15;100.00;100630.66;5034891;28;20057;-76
2021/01/27 09:00:01;;;;;;;17.35;8.00;;;;;;;2.22;100.00;100616.28;5046268;28;20442;-77
2021/01/27 09:02:41;;;;;;;11.90;7.30;;;;;;;2.21;100.00;100600.44;5054542;28;20096;-76
2021/01/27 09:05:20;;;;;;;15.68;7.50;;;;;;;2.18;100.00;100601.41;5062953;28;20509;-76
2021/01/27 09:07:50;;;;;;;11.20;7.03;;;;;;;2.23;100.00;100599.47;5038205;28;20132;-76
2021/01/27 09:10:32;;;;;;;12.60;7.70;;;;;;;2.24;100.00;100595.91;5062517;28;20118;-75
2021/01/27 09:12:58;;;;;;;18.30;7.57;;;;;;;2.23;100.00;100594.19;5065592;28;20525;-76
2021/01/27 09:15:28;;;;;;;14.10;6.55;;;;;;;2.22;100.00;100603.03;5067877;28;20036;-76
2021/01/27 09:17:56;;;;;;;20.05;7.35;;;;;;;2.35;100.00;100604.38;5061127;28;20502;-76
2021/01/27 09:20:28;;;;;;;15.85;6.90;;;;;;;2.30;100.00;100595.72;5057555;28;20094;-76
2021/01/27 09:22:59;;;;;;;10.03;6.10;;;;;;;2.47;100.00;100607.56;5047664;28;20044;-75
2021/01/27 09:25:26;;;;;;;18.05;7.40;;;;;;;2.42;100.00;100608.56;5044787;28;20336;-75
2021/01/27 09:28:09;;;;;;;13.88;6.95;;;;;;;2.37;100.00;100606.97;5023990;28;20044;-76
2021/01/27 09:30:37;;;;;;;;;;;;;;;2.41;100.00;100606.81;5064270;28;20032;-76
2021/01/27 09:33:18;;;;;;;14.73;6.60;;;;;;;2.55;100.00;100605.50;5051465;28;19916;-77
2021/01/27 09:35:46;;;;;;;14.85;7.32;;;;;;;2.56;100.00;100600.16;5040962;28;20028;-75
2021/01/27 09:38:17;;;;;;;10.73;6.32;;;;;;;2.60;100.00;100603.56;5032021;28;20093;-75
2021/01/27 09:40:47;;;;;;;14.80;7.05;;;;;;;2.61;100.00;100613.25;5031523;28;20036;-75
2021/01/27 09:43:17;;;;;;;11.00;5.70;;;;;;;2.61;100.00;100615.91;5033943;28;20041;-75
2021/01/27 09:45:48;;;;;;;13.20;6.28;;;;;;;2.61;100.00;100613.25;5044833;28;20036;-75
2021/01/27 09:48:16;;;;;;;11.38;6.22;;;;;;;2.72;100.00;100608.44;5033866;28;20051;-76
2021/01/27 09:50:51;;;;;;;16.33;6.13;;;;;;;2.66;100.00;100606.00;5056246;28;20036;-75
2021/01/27 09:53:26;;;;;;;9.88;5.55;;;;;;;2.80;100.00;100609.06;5055743;28;20036;-75
2021/01/27 09:55:53;;;;;;;11.43;6.05;;;;;;;2.80;100.00;100619.66;5050735;28;20024;-76
2021/01/27 09:58:19;;;;;;;8.45;5.30;;;;;;;2.84;100.00;100623.94;5049645;28;20469;-75
2021/01/27 10:00:45;;;;;;;7.70;4.97;;;;;;;2.83;100.00;100611.63;5066461;28;20094;-75
2021/01/27 10:03:27;;;;;;;7.57;4.93;;;;;;;2.95;100.00;100616.50;5066038;28;20029;-75
2021/01/27 10:05:52;;;;;;;12.27;4.97;;;;;;;2.90;100.00;100629.03;5052919;28;20060;-76
2021/01/27 10:08:34;;;;;;;8.23;4.55;;;;;;;3.02;100.00;100633.94;5053945;28;20067;-76
2021/01/27 10:11:10;;;;;;;6.28;4.40;;;;;;;2.98;100.00;100631.41;5059133;28;20463;-76
2021/01/27 10:13:39;;;;;;;6.60;4.25;;;;;;;3.06;100.00;100635.53;5049204;28;20039;-76
2021/01/27 10:16:08;;;;;;;7.70;4.68;;;;;;;3.09;100.00;100630.13;5056200;28;20020;-76
2021/01/27 10:18:36;;;;;;;5.55;3.67;;;;;;;3.00;100.00;100630.44;5033640;28;20078;-76
2021/01/27 10:21:07;;;;;;;7.45;3.78;;;;;;;3.05;100.00;100632.94;5087897;23;20129;-75
2021/01/27 10:23:42;;;;;;;6.60;4.55;;;;;;;3.07;100.00;100631.97;5066155;28;20115;-75
2021/01/27 10:26:29;;;;;;;7.88;4.35;;;;;;;3.01;100.00;100631.31;5054425;28;20036;-75
2021/01/27 10:29:09;;;;;;;10.27;4.75;;;;;;;3.10;100.00;100641.59;5057682;28;20045;-74
2021/01/27 10:31:37;;;;;;;7.57;4.53;;;;;;;3.05;100.00;100641.75;5060901;28;20518;-74
2021/01/27 10:34:03;;;;;;;8.38;4.30;;;;;;;3.12;100.00;100639.75;5061338;28;20048;-75
2021/01/27 10:36:37;;;;;;;10.13;4.13;;;;;;;3.10;100.00;100638.94;5061906;28;20037;-75
2021/01/27 10:39:30;;;;;;;8.88;4.63;;;;;;;3.23;100.00;100643.75;5048041;28;20033;-74
2021/01/27 10:42:08;;;;;;;12.23;5.90;;;;;;;3.13;100.00;100639.72;5046759;28;20655;-74
2021/01/27 10:44:37;;;;;;;8.80;4.72;;;;;;;3.27;100.00;100639.22;5041800;28;20083;-74
2021/01/27 10:47:09;;;;;;;10.10;4.13;;;;;;;3.24;100.00;100634.91;5044838;28;20041;-75
2021/01/27 10:49:41;;;;;;;9.07;4.60;;;;;;;3.29;100.00;100631.19;5049513;28;20111;-74
2021/01/27 10:52:11;;;;;;;6.57;4.47;;;;;;;3.25;100.00;100626.03;5043613;28;20620;-74
2021/01/27 10:54:39;;;;;;;7.97;4.45;;;;;;;3.19;100.00;100626.25;5044175;28;20044;-74
2021/01/27 10:57:04;;;;;;;7.38;4.45;;;;;;;3.29;100.00;100625.91;5044551;28;20034;-74
2021/01/27 10:59:29;;;;;;;5.82;4.30;;;;;;;3.32;100.00;100625.78;5043022;28;20052;-75
2021/01/27 11:01:55;;;;;;;9.30;4.95;;;;;;;3.33;100.00;100627.53;5067074;28;20108;-74
2021/01/27 11:04:20;;;;;;;9.75;4.90;;;;;;;3.33;100.00;100628.41;5046403;28;20442;-74
2021/01/27 11:06:46;;;;;;;8.40;5.25;;;;;;;3.32;100.00;100625.78;5049982;28;20041;-75
2021/01/27 11:09:12;;;;;;;7.28;5.10;;;;;;;3.41;100.00;100628.09;5049813;28;20041;-74
2021/01/27 11:11:37;;;;;;;7.43;4.95;;;;;;;3.37;100.00;100630.00;5052327;28;20033;-74
2021/01/27 11:14:06;;;;;;;7.57;5.63;;;;;;;3.40;100.00;100621.94;5047569;28;20035;-74
2021/01/27 11:16:32;;;;;;;8.38;5.72;;;;;;;3.40;100.00;100623.72;5048098;28;20061;-75
2021/01/27 11:18:58;;;;;;;8.15;5.78;;;;;;;3.34;100.00;100624.81;5048659;28;20754;-74
2021/01/27 11:21:24;;;;;;;13.50;6.68;;;;;;;3.49;100.00;100631.34;5048631;28;20542;-75
2021/01/27 11:23:50;;;;;;;8.77;5.72;;;;;;;3.46;100.00;100626.13;5049123;28;20491;-75
2021/01/27 11:26:19;;;;;;;10.70;6.07;;;;;;;3.46;100.00;100615.53;5046540;28;20072;-75
2021/01/27 11:28:49;;;;;;;9.00;5.72;;;;;;;3.57;100.00;100616.03;5048672;28;20068;-74
2021/01/27 11:31:15;;;;;;;8.98;6.20;;;;;;;3.48;100.00;100616.34;5049084;28;20044;-73
2021/01/27 11:33:42;;;;;;;12.05;6.28;;;;;;;3.67;100.00;100612.09;5046651;28;20048;-73
2021/01/27 11:36:08;;;;;;;10.50;6.10;;;;;;;3.61;100.00;100609.66;5048200;28;20033;-73
2021/01/27 11:38:33;;;;;;;10.48;6.72;;;;;;;3.67;100.00;100599.69;5049567;28;20041;-73
2021/01/27 11:40:59;;;;;;;9.32;5.97;;;;;;;3.75;100.00;100610.03;5067264;28;20070;-73
2021/01/27 11:43:24;;;;;;;11.15;5.75;;;;;;;3.65;100.00;100603.31;5047107;28;20127;-73
2021/01/27 11:45:49;;;;;;;10.00;7.32;;;;;;;3.65;100.00;100595.34;5044310;28;20106;-76
2021/01/27 11:48:15;;;;;;;9.57;6.45;;;;;;;3.81;100.00;100603.59;5046904;28;20039;-76
2021/01/27 11:50:40;;;;;;;13.40;7.40;;;;;;;3.78;100.00;100596.63;5046843;28;20403;-75
2021/01/27 11:53:06;;;;;;;11.23;6.47;;;;;;;3.84;100.00;100593.72;5047835;28;20507;-74
2021/01/27 11:55:31;;;;;;;9.05;6.03;;;;;;;3.71;100.00;100588.94;5050001;28;20036;-75